x

Fripp Nearshore (frp 2) (41033) Weather Station

12:08am - Sun 27th May 2018 All times are EDT. -4 hours from GMT.

  • Wind
    13mph, 18mph gusts
  • Sea Temp 79°f
  • Air Temp 78°f
  • Sea Pressure 1014.9mb
  • Fripp Nearshore (frp 2)
  • Fripp Nearshore (frp 2)

More Historic Weather Station data

Upgrade to MSW Pro to gain access to the past 30 days of data for over 8000 Wavebouys and Weather Stations around the globe.

Join

Comparision Forecast

View Surf forecast
   
Sun 05/27 12:08am 13 18 mph 1014.9mb 79f 78f
Sat 05/26 11:08pm 13 18 mph 1015mb 80f 78f
10:08pm 13 18 mph 1014.7mb 79f 78f
9:08pm 13 20 mph 1014.1mb 79f 78f
8:08pm 18 22 mph 1013.6mb 79f 78f
7:08pm 16 22 mph 1013.5mb 79f 78f
6:08pm 11 18 mph 1013.7mb 79f 78f
5:08pm 11 18 mph 1013.6mb 79f 78f
4:08pm 11 20 mph 1014mb 79f 78f
3:08pm 13 20 mph 1014.5mb 79f 78f
2:08pm 11 16 mph 1015.2mb 79f 78f
1:08pm 11 16 mph 1015.8mb 79f 77f
12:08pm 13 22 mph 1016.1mb 79f 77f
11:08am 13 18 mph 1016.2mb 79f 78f
10:08am 11 16 mph 1016.6mb 79f 77f
9:08am 11 16 mph 1016mb 79f 77f
8:08am 11 16 mph 1016mb 78f 77f
7:08am 11 16 mph 1015.5mb 78f 77f
2:08am 13 20 mph 1014.6mb 79f 77f
1:08am 13 18 mph 1015.5mb 79f 77f
12:08am 13 20 mph 1016.3mb 79f 77f
Fri 05/25 11:08pm 13 18 mph 1016.5mb 79f 77f
10:08pm 11 18 mph 1016.5mb 79f 78f
9:08pm 13 18 mph 1015.9mb 79f 77f
8:08pm 13 18 mph 1015.6mb 80f 78f
7:08pm 13 18 mph 1015.5mb 80f 78f
6:08pm 13 18 mph 1015.6mb 79f 78f
5:08pm 11 16 mph 1015.6mb 80f 78f
4:08pm 11 16 mph 1016.3mb 80f 78f
3:08pm 9 13 mph 1016.9mb 80f 78f
2:08pm 9 16 mph 1017.5mb 79f 78f
1:08pm 9 13 mph 1018.1mb 79f 78f
12:08pm 9 13 mph 1018.5mb 79f 78f
11:08am 9 11 mph 1019.1mb 79f 78f
10:08am 7 11 mph 1019mb 78f 78f
9:08am 7 9 mph 1018.9mb 78f 78f
8:08am 7 9 mph 1018.4mb 78f 77f
7:08am 4 9 mph 1018.2mb 78f 77f
6:08am 4 9 mph 1017.8mb 78f 76f
5:08am 4 9 mph 1017.5mb 78f 76f
4:08am 7 11 mph 1017.5mb 78f 77f
3:08am 9 11 mph 1018mb 78f 77f
2:08am 7 9 mph 1018.3mb 78f 77f
1:08am 7 9 mph 1018.9mb 78f 77f
12:08am 9 13 mph 1019.1mb 78f 78f
Thu 05/24 11:08pm 9 11 mph 1019.3mb 79f 78f
10:08pm 7 9 mph 1019.2mb 79f 78f
9:08pm 7 9 mph 1019.1mb 78f 77f
8:08pm 7 11 mph 1018.7mb 79f 77f
7:08pm 9 11 mph 1018.4mb 79f 77f
6:08pm 9 11 mph 1018.4mb 79f 77f
5:08pm 11 18 mph 1017.6mb 79f 77f
4:08pm 11 16 mph 1018.2mb 79f 77f
3:08pm 11 18 mph 1017.6mb 79f 77f
2:08pm 11 16 mph 1018.4mb 79f 77f
1:08pm 9 13 mph 1019.1mb 79f 77f
12:08pm 7 9 mph 1019.4mb 78f 77f
11:08am 9 11 mph 1019.4mb 79f 77f
10:08am 9 13 mph 1019.5mb 79f 77f
9:08am 9 13 mph 1019.5mb 78f 76f
8:08am 9 11 mph 1019.3mb 78f 76f
7:08am 9 11 mph 1018.9mb 78f 76f
6:08am 11 13 mph 1018.2mb 78f 76f
5:08am 11 13 mph 1017.8mb 78f 76f
4:08am 11 16 mph 1017.6mb 78f 76f
3:08am 11 16 mph 1017.6mb 78f 76f
2:08am 9 13 mph 1018.5mb 78f 76f
1:08am 11 16 mph 1018.6mb 79f 76f
12:08am 11 16 mph 1018.7mb 79f 76f
Wed 05/23 11:08pm 11 18 mph 1018.8mb 79f 77f
10:08pm 13 18 mph 1018.7mb 79f 77f
9:08pm 13 18 mph 1018.3mb 79f 77f
8:08pm 16 20 mph 1017.6mb 78f 77f
6:08pm 16 22 mph 1017.4mb 79f 77f
5:08pm 18 22 mph 1017.4mb 79f 78f
4:08pm 16 22 mph 1017.7mb 79f 78f
3:08pm 13 20 mph 1018.3mb 79f 77f
2:08pm 11 18 mph 1018.9mb 79f 77f
1:08pm 11 18 mph 1019.5mb 79f 77f
12:08pm 11 18 mph 1020.1mb 79f 77f
11:08am 11 18 mph 1020.3mb 79f 77f
10:08am 11 18 mph 1020.3mb 78f 77f
9:08am 13 20 mph 1019.8mb 78f 76f
8:08am 16 20 mph 1019.5mb 78f 76f
7:08am 16 22 mph 1019.1mb 78f 76f
6:08am 16 22 mph 1018.3mb 78f 76f